Time;durP1;ratioP1;P1;durP2;ratioP2;P2;SDS_P1;SDS_P2;PMS_P1;PMS_P2;Temp;Humidity;BMP_temperature;BMP_pressure;BME280_temperature;BME280_humidity;BME280_pressure;Samples;Min_cycle;Max_cycle;Signal;HPM_P1;HPM_P2
2022/05/01 00:01:01;;;;;;;4.53;1.33;;;4.60;99.90;;;;;;4934155;29;20102;-73
2022/05/01 00:03:31;;;;;;;4.93;1.67;;;4.60;99.90;;;;;;4936570;29;20048;-74
2022/05/01 00:05:59;;;;;;;2.70;1.48;;;4.60;99.90;;;;;;4919458;29;20051;-74
2022/05/01 00:08:27;;;;;;;5.07;1.35;;;4.60;99.90;;;;;;4935892;29;20055;-75
2022/05/01 00:10:58;;;;;;;5.03;1.88;;;4.50;99.90;;;;;;4936636;29;20051;-73
2022/05/01 00:13:26;;;;;;;2.00;1.23;;;4.50;99.90;;;;;;4935271;29;20155;-74
2022/05/01 00:15:54;;;;;;;2.10;1.20;;;4.60;99.90;;;;;;4920030;29;20468;-74
2022/05/01 00:18:22;;;;;;;7.35;1.65;;;4.60;99.90;;;;;;4936892;29;20056;-73
2022/05/01 00:20:51;;;;;;;5.90;1.73;;;4.60;99.90;;;;;;4935540;29;20158;-75
2022/05/01 00:23:19;;;;;;;2.17;1.48;;;4.60;99.90;;;;;;4936896;29;20048;-74
2022/05/01 00:25:47;;;;;;;1.88;1.02;;;4.50;99.90;;;;;;4919407;29;20048;-74
2022/05/01 00:28:17;;;;;;;3.08;1.40;;;4.50;99.90;;;;;;4936502;29;20055;-74
2022/05/01 00:30:48;;;;;;;2.80;1.13;;;4.50;99.90;;;;;;4919515;29;20138;-75
2022/05/01 00:38:46;;;;;;;4.03;1.30;;;4.60;99.90;;;;;;4918792;29;20055;-74
2022/05/01 00:41:14;;;;;;;5.50;1.33;;;4.70;99.90;;;;;;4936017;29;20047;-74
2022/05/01 00:44:00;;;;;;;4.10;1.58;;;4.70;99.90;;;;;;4934395;29;20059;-74
2022/05/01 00:46:28;;;;;;;3.15;1.40;;;4.80;99.90;;;;;;4933308;29;20509;-74
2022/05/01 00:48:55;;;;;;;1.80;1.40;;;4.90;99.90;;;;;;4918559;29;20154;-74
2022/05/01 00:51:24;;;;;;;3.88;1.38;;;5.00;99.90;;;;;;4918511;29;20067;-74
2022/05/01 00:53:53;;;;;;;3.08;1.65;;;5.10;99.90;;;;;;4935542;29;20043;-74
2022/05/01 00:56:21;;;;;;;14.85;1.77;;;5.20;99.90;;;;;;4935569;29;20051;-74
2022/05/01 00:58:49;;;;;;;2.95;1.23;;;5.30;99.90;;;;;;4919089;29;20094;-77
2022/05/01 01:01:19;;;;;;;4.65;1.30;;;5.30;99.90;;;;;;4935307;29;20409;-77
2022/05/01 01:03:47;;;;;;;5.70;1.17;;;5.30;99.90;;;;;;4936403;29;20052;-77
2022/05/01 01:06:15;;;;;;;2.35;1.17;;;5.30;99.90;;;;;;4934630;29;20044;-77
2022/05/01 01:08:43;;;;;;;2.50;1.42;;;5.30;99.90;;;;;;4935901;29;20052;-76
2022/05/01 01:11:10;;;;;;;4.60;1.27;;;5.30;99.90;;;;;;4918590;29;20146;-78
2022/05/01 01:13:38;;;;;;;1.20;0.90;;;5.30;99.90;;;;;;4944991;29;20155;-78
2022/05/01 01:16:12;;;;;;;3.85;1.02;;;5.30;99.90;;;;;;4915830;29;20048;-78
2022/05/01 01:18:41;;;;;;;2.30;1.15;;;5.30;99.90;;;;;;4917440;29;20056;-78
2022/05/01 01:21:11;;;;;;;3.03;1.20;;;5.30;99.90;;;;;;4915402;29;20067;-78
2022/05/01 01:23:41;;;;;;;4.65;1.35;;;5.30;99.90;;;;;;4916188;29;20067;-78
2022/05/01 01:26:12;;;;;;;1.15;0.80;;;5.30;99.90;;;;;;4915147;29;20056;-77
2022/05/01 01:28:41;;;;;;;2.70;0.90;;;5.30;99.90;;;;;;4930447;29;20413;-74
2022/05/01 01:33:59;;;;;;;6.50;1.00;;;5.30;99.90;;;;;;4915042;29;20048;-78
2022/05/01 01:36:35;;;;;;;3.72;1.00;;;5.30;99.90;;;;;;4914935;29;20052;-78
2022/05/01 01:39:03;;;;;;;2.70;1.10;;;5.30;99.90;;;;;;4946539;29;20417;-74
2022/05/01 01:41:32;;;;;;;1.98;0.80;;;5.30;99.90;;;;;;4948551;29;20071;-74
2022/05/01 01:44:01;;;;;;;5.15;1.25;;;5.40;99.90;;;;;;4934780;29;20477;-75
2022/05/01 01:46:28;;;;;;;5.78;1.35;;;5.40;99.90;;;;;;4933421;29;20075;-74
2022/05/01 01:48:56;;;;;;;3.08;1.27;;;5.40;99.90;;;;;;4934336;29;20059;-74
2022/05/01 01:51:23;;;;;;;4.57;1.50;;;5.40;99.90;;;;;;4932984;29;20082;-74
2022/05/01 01:53:53;;;;;;;2.55;1.08;;;5.40;99.90;;;;;;4949403;29;20059;-74
2022/05/01 01:56:21;;;;;;;2.38;1.10;;;5.40;99.90;;;;;;4932983;29;20044;-75
2022/05/01 01:58:48;;;;;;;3.50;1.13;;;5.40;99.90;;;;;;4934645;29;20055;-74
2022/05/01 02:01:16;;;;;;;5.25;1.20;;;5.40;99.90;;;;;;4933143;29;20130;-74
2022/05/01 02:03:43;;;;;;;10.95;1.17;;;5.40;99.90;;;;;;4934217;29;20461;-74
2022/05/01 02:06:11;;;;;;;3.22;1.05;;;5.40;99.90;;;;;;4934343;29;20059;-74
2022/05/01 02:08:40;;;;;;;5.13;1.80;;;5.50;99.90;;;;;;4934509;29;20147;-74
2022/05/01 02:11:10;;;;;;;3.20;1.20;;;5.50;99.90;;;;;;4932990;29;20075;-74
2022/05/01 02:13:39;;;;;;;4.75;1.50;;;5.50;99.90;;;;;;4933978;29;20520;-74
2022/05/01 02:16:06;;;;;;;4.50;1.88;;;5.60;99.90;;;;;;4932904;29;20502;-74
2022/05/01 02:18:34;;;;;;;7.93;1.20;;;5.60;99.90;;;;;;4948812;29;20512;-73
2022/05/01 02:23:49;;;;;;;1.67;1.05;;;5.60;99.90;;;;;;4932349;29;20048;-73
2022/05/01 02:26:18;;;;;;;4.30;1.50;;;5.60;99.90;;;;;;4948784;29;20603;-74
2022/05/01 02:28:46;;;;;;;6.28;1.00;;;5.60;99.90;;;;;;4934251;29;20055;-74
2022/05/01 02:31:13;;;;;;;3.78;1.20;;;5.60;99.90;;;;;;4948628;29;20048;-74
2022/05/01 02:33:41;;;;;;;3.55;1.42;;;5.60;99.90;;;;;;4932986;29;20168;-74
2022/05/01 02:36:12;;;;;;;3.92;1.30;;;5.70;99.90;;;;;;4932766;29;20047;-73
2022/05/01 02:38:40;;;;;;;4.57;1.20;;;5.70;99.90;;;;;;4934188;29;20060;-73
2022/05/01 02:41:07;;;;;;;1.80;1.20;;;5.70;99.90;;;;;;4948447;29;20055;-73
2022/05/01 02:43:38;;;;;;;2.38;1.17;;;5.70;99.90;;;;;;4932755;29;20107;-72
2022/05/01 02:46:05;;;;;;;3.95;1.60;;;5.70;99.90;;;;;;4932599;29;20062;-74
2022/05/01 02:48:33;;;;;;;2.00;1.20;;;5.70;99.90;;;;;;4948475;29;20052;-74
2022/05/01 02:51:04;;;;;;;2.90;1.30;;;5.70;99.90;;;;;;4948542;29;20512;-74
2022/05/01 02:53:32;;;;;;;3.05;1.52;;;5.80;99.90;;;;;;4932760;29;20055;-74
2022/05/01 02:56:01;;;;;;;4.10;1.35;;;5.80;99.90;;;;;;4932230;29;20168;-74
2022/05/01 02:58:29;;;;;;;3.17;1.27;;;5.80;99.90;;;;;;4933934;29;20057;-74
2022/05/01 03:00:59;;;;;;;4.80;1.95;;;5.80;99.90;;;;;;4933838;29;20059;-75
2022/05/01 03:03:27;;;;;;;6.70;1.70;;;5.90;99.90;;;;;;4934833;29;20154;-74
2022/05/01 03:05:57;;;;;;;2.42;1.60;;;5.90;99.90;;;;;;4936801;29;20055;-74
2022/05/01 03:08:24;;;;;;;4.07;1.98;;;5.90;99.90;;;;;;4936316;29;20448;-75
2022/05/01 03:10:52;;;;;;;4.25;1.92;;;5.90;99.90;;;;;;4937614;29;20129;-74
2022/05/01 03:13:20;;;;;;;3.80;1.52;;;5.90;99.90;;;;;;4936288;29;20464;-74
2022/05/01 03:15:47;;;;;;;6.50;1.80;;;5.90;99.90;;;;;;4937400;29;20052;-74
2022/05/01 03:23:47;;;;;;;2.30;1.30;;;6.00;99.90;;;;;;4952374;29;20050;-74
2022/05/01 03:26:16;;;;;;;2.45;1.40;;;5.90;99.90;;;;;;4951926;29;20055;-75
2022/05/01 03:28:44;;;;;;;3.85;1.90;;;5.90;99.90;;;;;;4935987;29;20063;-73
2022/05/01 03:31:13;;;;;;;3.47;1.50;;;6.00;99.90;;;;;;4937202;29;20192;-74
2022/05/01 03:33:42;;;;;;;4.10;1.70;;;5.90;99.90;;;;;;4937388;29;20493;-74
2022/05/01 03:36:11;;;;;;;4.53;1.75;;;6.00;99.90;;;;;;4937103;29;20183;-75
2022/05/01 03:38:40;;;;;;;7.35;2.08;;;6.00;99.90;;;;;;4937412;29;20420;-73
2022/05/01 03:41:10;;;;;;;5.35;1.80;;;6.10;99.90;;;;;;4935096;29;20512;-74
2022/05/01 03:43:39;;;;;;;4.53;1.75;;;6.10;99.90;;;;;;4951526;29;20063;-75
2022/05/01 03:46:10;;;;;;;5.57;2.15;;;6.10;99.90;;;;;;4935579;29;20050;-74
2022/05/01 03:48:37;;;;;;;2.97;2.10;;;6.20;99.90;;;;;;4951502;29;20059;-74
2022/05/01 03:51:06;;;;;;;5.65;1.70;;;6.20;99.90;;;;;;4935309;29;20114;-74
2022/05/01 03:53:34;;;;;;;3.92;1.77;;;6.30;99.90;;;;;;4936665;29;20060;-74
2022/05/01 03:56:02;;;;;;;5.97;2.28;;;6.40;99.90;;;;;;4936496;29;20481;-74
2022/05/01 03:58:30;;;;;;;1.98;1.70;;;6.40;99.90;;;;;;4936607;29;20048;-74
2022/05/01 04:00:58;;;;;;;4.85;1.80;;;6.40;99.90;;;;;;4935530;29;20122;-74
2022/05/01 04:03:25;;;;;;;3.08;1.63;;;6.40;99.90;;;;;;4936667;29;20098;-75
2022/05/01 04:05:53;;;;;;;6.93;1.60;;;6.50;99.90;;;;;;4934577;29;20096;-74
2022/05/01 04:08:23;;;;;;;3.90;1.88;;;6.50;99.90;;;;;;4936398;29;20158;-74
2022/05/01 04:10:50;;;;;;;8.23;1.77;;;6.50;99.90;;;;;;4951127;29;20055;-74
2022/05/01 04:13:18;;;;;;;4.85;1.60;;;6.60;99.90;;;;;;4934524;29;20079;-74
2022/05/01 04:15:46;;;;;;;5.20;2.40;;;6.70;99.90;;;;;;4935305;29;20044;-74
2022/05/01 04:18:14;;;;;;;4.60;2.33;;;6.70;99.90;;;;;;4950957;29;20048;-74
2022/05/01 04:20:42;;;;;;;4.10;2.03;;;6.80;99.90;;;;;;4934800;29;20060;-74
2022/05/01 04:23:10;;;;;;;8.18;2.63;;;6.70;99.90;;;;;;4935018;29;20052;-73
2022/05/01 04:25:40;;;;;;;6.72;2.33;;;6.80;99.90;;;;;;4950884;29;20504;-74
2022/05/01 04:28:09;;;;;;;6.40;2.70;;;6.90;99.90;;;;;;4934923;29;20471;-74
2022/05/01 04:30:37;;;;;;;6.75;2.63;;;6.90;99.90;;;;;;4932134;29;20057;-74
2022/05/01 04:33:08;;;;;;;4.97;2.58;;;7.00;99.90;;;;;;4904133;29;20148;-73
2022/05/01 04:35:40;;;;;;;8.25;3.38;;;7.10;99.90;;;;;;4915921;29;20397;-73
2022/05/01 04:38:10;;;;;;;6.85;2.28;;;7.10;99.90;;;;;;4915583;29;20150;-74
2022/05/01 04:40:40;;;;;;;5.10;2.20;;;7.20;99.90;;;;;;4917594;29;20080;-74
2022/05/01 04:43:12;;;;;;;5.57;2.15;;;7.30;99.90;;;;;;4930372;29;20472;-74
2022/05/01 04:45:43;;;;;;;2.97;2.10;;;7.30;99.90;;;;;;4936582;29;20068;-78
2022/05/01 04:48:12;;;;;;;6.72;2.03;;;7.20;99.90;;;;;;4950595;29;20461;-77
2022/05/01 04:50:41;;;;;;;4.40;2.15;;;7.30;99.90;;;;;;4934677;29;20044;-77
2022/05/01 04:53:11;;;;;;;6.13;2.03;;;7.30;99.90;;;;;;4934749;29;20083;-77
2022/05/01 04:55:42;;;;;;;3.20;1.50;;;7.30;99.90;;;;;;4950557;29;20062;-77
2022/05/01 04:58:11;;;;;;;7.93;1.90;;;7.30;99.90;;;;;;4935911;29;20138;-77
2022/05/01 05:00:42;;;;;;;7.63;2.15;;;7.30;99.90;;;;;;4947315;29;20044;-77
2022/05/01 05:03:10;;;;;;;7.00;2.55;;;7.30;99.90;;;;;;4930691;29;20052;-78
2022/05/01 05:05:37;;;;;;;7.18;2.42;;;7.40;99.90;;;;;;4935378;29;20040;-77
2022/05/01 05:10:53;;;;;;;5.72;2.28;;;7.50;99.90;;;;;;4934579;29;20066;-77
2022/05/01 05:13:25;;;;;;;4.85;2.13;;;7.60;99.90;;;;;;4950453;29;20058;-78
2022/05/01 05:15:53;;;;;;;3.72;2.00;;;7.60;99.90;;;;;;4935362;29;20134;-78
2022/05/01 05:18:21;;;;;;;4.28;2.13;;;7.60;99.90;;;;;;4950422;29;20059;-79
2022/05/01 05:20:49;;;;;;;3.90;2.33;;;7.70;99.90;;;;;;4950371;29;20052;-78
2022/05/01 05:23:17;;;;;;;5.13;1.48;;;7.70;99.90;;;;;;4935373;29;20559;-78
2022/05/01 05:25:45;;;;;;;4.35;1.83;;;7.70;99.90;;;;;;4934355;29;20059;-78
2022/05/01 05:28:13;;;;;;;4.18;1.65;;;7.80;99.90;;;;;;4949258;29;20103;-78
2022/05/01 05:30:41;;;;;;;5.28;2.13;;;7.80;99.90;;;;;;4934657;29;20068;-78
2022/05/01 05:33:09;;;;;;;2.65;1.90;;;7.80;99.90;;;;;;4932335;29;20055;-77
2022/05/01 05:35:37;;;;;;;5.82;2.25;;;7.80;99.90;;;;;;4918056;29;20560;-74
2022/05/01 05:38:05;;;;;;;4.18;1.60;;;7.90;99.90;;;;;;4934831;29;20448;-74
2022/05/01 05:40:32;;;;;;;7.18;2.17;;;8.10;99.90;;;;;;4934327;29;20134;-77
2022/05/01 05:43:00;;;;;;;7.63;2.33;;;8.10;99.90;;;;;;4933755;29;20228;-78
2022/05/01 05:45:29;;;;;;;5.25;2.13;;;8.10;99.90;;;;;;4934622;29;20291;-77
2022/05/01 05:47:57;;;;;;;2.25;1.70;;;8.20;99.90;;;;;;4946501;29;20055;-74
2022/05/01 05:50:25;;;;;;;8.13;2.10;;;8.20;99.90;;;;;;4932638;29;20051;-74
2022/05/01 05:52:55;;;;;;;4.22;2.20;;;8.30;99.90;;;;;;4948152;29;20469;-75
2022/05/01 05:55:23;;;;;;;3.03;1.80;;;8.30;99.90;;;;;;4949740;28;20059;-75
2022/05/01 05:57:51;;;;;;;3.75;1.98;;;8.30;99.90;;;;;;4935697;29;20142;-78
2022/05/01 06:00:21;;;;;;;5.63;2.40;;;8.40;99.90;;;;;;4934750;29;21565;-76
2022/05/01 06:02:52;;;;;;;10.98;2.35;;;8.50;99.90;;;;;;4935056;29;20044;-77
2022/05/01 06:05:21;;;;;;;4.05;2.15;;;8.60;99.90;;;;;;4950439;29;20134;-75
2022/05/01 06:07:49;;;;;;;3.50;2.30;;;8.60;99.90;;;;;;4930896;29;20130;-75
2022/05/01 06:10:23;;;;;;;3.67;2.00;;;8.70;99.90;;;;;;4916334;29;20055;-79
2022/05/01 06:12:59;;;;;;;;;;;8.50;99.90;;;;;;4935307;29;20046;-76
2022/05/01 06:15:27;;;;;;;8.07;2.20;;;8.60;99.90;;;;;;4933627;29;20021;-78
2022/05/01 06:17:56;;;;;;;6.07;2.00;;;8.70;99.90;;;;;;4933556;29;20062;-75
2022/05/01 06:20:24;;;;;;;5.32;1.92;;;8.70;99.90;;;;;;4917325;29;20272;-74
2022/05/01 06:22:52;;;;;;;5.07;2.05;;;8.70;99.90;;;;;;4931588;29;20051;-75
2022/05/01 06:25:22;;;;;;;5.13;2.47;;;8.80;99.90;;;;;;4933145;29;20047;-75
2022/05/01 06:27:49;;;;;;;5.35;2.33;;;8.90;99.90;;;;;;4932800;29;20071;-73
2022/05/01 06:30:18;;;;;;;3.90;2.45;;;9.00;99.90;;;;;;4949418;29;20055;-77
2022/05/01 06:32:46;;;;;;;6.95;2.42;;;9.00;99.90;;;;;;4934495;29;20134;-77
2022/05/01 06:35:15;;;;;;;6.88;2.35;;;9.10;99.90;;;;;;4932985;29;20547;-75
2022/05/01 06:37:44;;;;;;;9.77;3.42;;;9.10;99.90;;;;;;4934225;29;20062;-74
2022/05/01 06:40:15;;;;;;;2.90;2.20;;;9.30;99.90;;;;;;4934127;29;20052;-74
2022/05/01 06:42:42;;;;;;;7.22;2.83;;;9.20;99.90;;;;;;4929471;29;20404;-74
2022/05/01 06:45:11;;;;;;;5.82;2.50;;;9.30;99.90;;;;;;4932342;29;20655;-74
2022/05/01 06:47:38;;;;;;;3.33;2.10;;;9.50;99.90;;;;;;4931756;29;20063;-74
2022/05/01 06:50:07;;;;;;;5.70;2.33;;;9.60;99.90;;;;;;4944796;29;20134;-73
2022/05/01 06:52:36;;;;;;;7.18;2.63;;;9.60;99.90;;;;;;4932516;29;20453;-74
2022/05/01 06:55:04;;;;;;;7.18;2.38;;;9.50;99.90;;;;;;4935513;29;20106;-78
2022/05/01 06:57:31;;;;;;;3.58;2.40;;;9.50;99.90;;;;;;4929030;29;20054;-78
2022/05/01 06:59:59;;;;;;;6.25;2.20;;;9.50;99.90;;;;;;4951703;28;20047;-77
2022/05/01 07:02:27;;;;;;;6.65;2.80;;;9.40;99.90;;;;;;4932740;29;20066;-77
2022/05/01 07:04:54;;;;;;;5.97;3.00;;;9.30;99.90;;;;;;4926686;29;20143;-73
2022/05/01 07:07:22;;;;;;;22.48;3.63;;;9.20;99.90;;;;;;4946565;28;20130;-79
2022/05/01 07:09:51;;;;;;;4.70;2.42;;;9.10;99.90;;;;;;4946168;29;20398;-77
2022/05/01 07:12:19;;;;;;;4.68;2.25;;;9.20;99.90;;;;;;4944962;28;20051;-80
2022/05/01 07:14:48;;;;;;;4.30;2.67;;;9.30;99.90;;;;;;4926578;29;20092;-72
2022/05/01 07:17:16;;;;;;;7.75;2.90;;;9.60;99.90;;;;;;4929381;29;20056;-72
2022/05/01 07:19:43;;;;;;;6.43;2.47;;;10.10;99.90;;;;;;4932039;29;20039;-73
2022/05/01 07:22:14;;;;;;;6.03;2.53;;;10.70;99.90;;;;;;4923168;29;20468;-73
2022/05/01 07:24:42;;;;;;;8.73;3.30;;;11.10;99.90;;;;;;4932391;29;20095;-78
2022/05/01 07:27:12;;;;;;;7.43;3.33;;;11.50;99.90;;;;;;4927469;29;20048;-78
2022/05/01 07:29:40;;;;;;;7.65;3.95;;;11.70;99.90;;;;;;4931036;29;20480;-73
2022/05/01 07:32:09;;;;;;;4.47;2.85;;;11.80;99.90;;;;;;4944630;29;20055;-76
2022/05/01 07:34:36;;;;;;;8.32;3.25;;;12.00;99.90;;;;;;4932177;29;20048;-77
2022/05/01 07:37:05;;;;;;;5.85;2.80;;;12.10;99.90;;;;;;4938124;29;20050;-77
2022/05/01 07:39:33;;;;;;;6.95;2.95;;;12.30;99.90;;;;;;4949286;28;20114;-72
2022/05/01 07:42:01;;;;;;;5.30;3.28;;;12.50;99.90;;;;;;4930261;29;20512;-78
2022/05/01 07:44:31;;;;;;;5.40;2.53;;;12.80;99.90;;;;;;4938314;29;20054;-78
2022/05/01 07:46:59;;;;;;;4.53;2.45;;;13.10;99.90;;;;;;4933086;29;20058;-79
2022/05/01 07:49:30;;;;;;;5.60;2.63;;;13.20;99.90;;;;;;4936562;29;20138;-77
2022/05/01 07:51:58;;;;;;;4.10;2.60;;;13.50;99.90;;;;;;4911087;29;20061;-72
2022/05/01 07:54:28;;;;;;;8.25;2.83;;;13.90;98.30;;;;;;4936115;29;20071;-77
2022/05/01 07:56:56;;;;;;;4.38;2.70;;;14.10;96.10;;;;;;4920134;29;20438;-71
2022/05/01 07:59:24;;;;;;;6.20;3.28;;;14.40;95.80;;;;;;4936319;29;20059;-77
2022/05/01 08:01:54;;;;;;;7.57;2.80;;;14.80;92.30;;;;;;4936192;29;20052;-78
2022/05/01 08:04:30;;;;;;;5.18;2.40;;;15.30;91.30;;;;;;4949984;29;20515;-76
2022/05/01 08:07:08;;;;;;;6.10;2.42;;;15.80;84.60;;;;;;4931124;29;20058;-77
2022/05/01 08:09:35;;;;;;;5.93;2.50;;;16.30;80.20;;;;;;4922937;29;20134;-76
2022/05/01 08:12:04;;;;;;;5.55;2.67;;;16.20;78.20;;;;;;4925294;29;20496;-76
2022/05/01 08:14:32;;;;;;;4.20;2.70;;;16.20;77.20;;;;;;4916287;29;20060;-76
2022/05/01 08:17:04;;;;;;;7.65;2.97;;;16.60;75.60;;;;;;4931443;29;20051;-72
2022/05/01 08:22:17;;;;;;;4.32;2.80;;;17.40;72.30;;;;;;4931556;29;20048;-71
2022/05/01 08:24:45;;;;;;;6.97;3.55;;;17.80;66.90;;;;;;4935752;29;20066;-72
2022/05/01 08:27:12;;;;;;;6.38;2.30;;;17.60;66.10;;;;;;4935839;29;20052;-73
2022/05/01 08:29:40;;;;;;;5.85;2.38;;;17.90;65.50;;;;;;4935137;29;20051;-77
2022/05/01 08:32:09;;;;;;;5.45;2.70;;;18.30;62.60;;;;;;4929534;29;20063;-77
2022/05/01 08:34:37;;;;;;;4.50;2.35;;;17.70;63.50;;;;;;4933337;29;20043;-80
2022/05/01 08:37:05;;;;;;;3.17;2.00;;;17.60;63.70;;;;;;4936470;29;20146;-78
2022/05/01 08:39:33;;;;;;;2.15;1.73;;;17.60;62.90;;;;;;4950359;28;20522;-80
2022/05/01 08:42:03;;;;;;;5.53;2.33;;;18.10;61.90;;;;;;4933876;29;20044;-72
2022/05/01 08:44:33;;;;;;;5.28;2.47;;;18.60;59.80;;;;;;4934421;29;20307;-76
2022/05/01 08:47:20;;;;;;;5.82;2.30;;;18.00;60.00;;;;;;4934074;29;20087;-78
2022/05/01 08:49:58;;;;;;;3.97;2.00;;;18.10;60.40;;;;;;4933547;29;20048;-78
2022/05/01 08:52:29;;;;;;;5.22;2.53;;;17.70;61.20;;;;;;4927831;29;20071;-79
2022/05/01 08:54:59;;;;;;;5.20;2.20;;;18.20;59.80;;;;;;4919094;29;20066;-79
2022/05/01 08:57:32;;;;;;;6.45;2.20;;;17.70;59.50;;;;;;4950015;28;20151;-78
2022/05/01 09:00:01;;;;;;;3.80;2.60;;;17.60;60.00;;;;;;4934159;29;20056;-73
2022/05/01 09:02:32;;;;;;;6.13;2.20;;;18.00;60.00;;;;;;4935129;29;20107;-74
2022/05/01 09:05:00;;;;;;;3.90;2.57;;;17.60;59.30;;;;;;4945283;29;20056;-72
2022/05/01 09:07:28;;;;;;;4.30;2.50;;;16.90;61.70;;;;;;4930578;29;20044;-74
2022/05/01 09:09:56;;;;;;;7.32;2.25;;;16.80;65.00;;;;;;4934678;29;20051;-74
2022/05/01 09:15:11;;;;;;;3.08;1.63;;;19.60;59.60;;;;;;4931513;29;20051;-72
2022/05/01 09:17:59;;;;;;;5.75;1.60;;;20.60;54.70;;;;;;4934208;29;20082;-73
2022/05/01 09:20:29;;;;;;;7.97;1.63;;;21.10;53.40;;;;;;4936900;29;20357;-78
2022/05/01 09:22:59;;;;;;;5.07;2.05;;;21.10;51.70;;;;;;4937978;28;20526;-76
2022/05/01 09:25:28;;;;;;;3.05;1.73;;;21.30;51.50;;;;;;4934869;29;20512;-78
2022/05/01 09:28:01;;;;;;;5.25;1.33;;;22.30;50.60;;;;;;4947510;28;20044;-73
2022/05/01 09:30:35;;;;;;;5.32;2.17;;;23.00;47.90;;;;;;4917728;29;20154;-77
2022/05/01 09:33:05;;;;;;;5.28;2.58;;;23.00;47.10;;;;;;4930739;29;20049;-78
2022/05/01 09:35:35;;;;;;;2.92;1.60;;;22.70;47.40;;;;;;4918435;29;20063;-76
2022/05/01 09:38:17;;;;;;;5.05;1.30;;;22.20;46.70;;;;;;4927916;29;20079;-72
2022/05/01 09:40:46;;;;;;;1.83;1.23;;;22.30;47.00;;;;;;4941776;29;20055;-72
2022/05/01 09:43:34;;;;;;;4.80;2.17;;;23.00;47.00;;;;;;4926204;29;20048;-71
2022/05/01 09:46:17;;;;;;;5.82;1.80;;;22.80;45.20;;;;;;4920452;29;20503;-71
2022/05/01 09:48:58;;;;;;;;;;;21.70;45.80;;;;;;4926449;29;20403;-72
2022/05/01 09:51:31;;;;;;;3.72;1.52;;;20.60;47.50;;;;;;4927658;29;19930;-78
2022/05/01 09:54:00;;;;;;;1.67;1.55;;;19.40;48.90;;;;;;4927214;29;20083;-71
2022/05/01 09:56:31;;;;;;;2.50;1.52;;;19.20;51.70;;;;;;4927875;29;20051;-71
2022/05/01 09:59:03;;;;;;;4.55;1.40;;;20.50;49.90;;;;;;4929992;29;20083;-78
2022/05/01 10:01:34;;;;;;;2.00;1.30;;;21.70;48.10;;;;;;4940724;28;20450;-79
2022/05/01 10:04:03;;;;;;;4.47;1.38;;;22.50;45.80;;;;;;4910499;29;20397;-78
2022/05/01 10:06:32;;;;;;;7.93;1.42;;;23.00;44.10;;;;;;4925903;29;20102;-78
2022/05/01 10:09:01;;;;;;;4.03;1.38;;;22.60;44.30;;;;;;4927154;29;20058;-78
2022/05/01 10:11:30;;;;;;;4.45;0.80;;;22.60;44.40;;;;;;4924911;29;20044;-78
2022/05/01 10:13:58;;;;;;;4.32;0.88;;;22.80;43.20;;;;;;4940110;29;20524;-78
2022/05/01 10:16:27;;;;;;;5.10;1.10;;;23.40;41.10;;;;;;4924210;29;20079;-73
2022/05/01 10:18:55;;;;;;;6.72;1.02;;;23.60;41.00;;;;;;4923280;29;20055;-74
2022/05/01 10:21:25;;;;;;;0.73;0.40;;;23.90;40.70;;;;;;4922502;29;20099;-73
2022/05/01 10:23:53;;;;;;;3.67;0.93;;;24.20;39.90;;;;;;4925586;29;20119;-75
2022/05/01 10:26:28;;;;;;;0.82;0.73;;;24.40;40.30;;;;;;4924725;29;20138;-73
2022/05/01 10:29:37;;;;;;;5.05;1.10;;;24.40;39.50;;;;;;4927095;29;20071;-73
2022/05/01 10:32:41;;;;;;;2.00;1.00;;;24.60;39.60;;;;;;4917501;29;20079;-73
2022/05/01 10:35:52;;;;;;;4.03;1.00;;;25.10;39.40;;;;;;4925068;29;20691;-74
2022/05/01 10:38:41;;;;;;;1.70;0.73;;;25.00;39.00;;;;;;4924129;29;20087;-73
2022/05/01 10:41:11;;;;;;;2.38;0.70;;;24.40;39.00;;;;;;4922594;29;20051;-74
2022/05/01 10:43:39;;;;;;;2.13;0.65;;;24.10;39.60;;;;;;4922696;29;20054;-74
2022/05/01 10:46:28;;;;;;;4.00;0.90;;;23.70;40.10;;;;;;4925932;29;20508;-74
2022/05/01 10:49:00;;;;;;;0.95;0.70;;;23.20;41.00;;;;;;4925184;29;20138;-75
2022/05/01 10:51:49;;;;;;;2.05;0.98;;;22.90;41.10;;;;;;4907427;29;20048;-73
2022/05/01 10:54:38;;;;;;;1.98;1.10;;;21.80;43.10;;;;;;4920549;29;20147;-73
2022/05/01 10:57:13;;;;;;;3.90;1.48;;;21.00;43.50;;;;;;4918611;29;20063;-72
2022/05/01 10:59:47;;;;;;;1.83;0.70;;;20.30;44.40;;;;;;4927082;29;20060;-72
2022/05/01 11:02:30;;;;;;;1.00;0.77;;;20.50;44.30;;;;;;4944859;28;20055;-81
2022/05/01 11:05:00;;;;;;;4.10;0.85;;;21.80;43.40;;;;;;4924498;29;20079;-81
2022/05/01 11:07:30;;;;;;;1.50;0.85;;;22.60;42.10;;;;;;4923608;29;20047;-79
2022/05/01 11:10:01;;;;;;;1.45;0.90;;;23.40;40.70;;;;;;4927678;29;20468;-72
2022/05/01 11:12:32;;;;;;;0.77;0.77;;;23.50;40.60;;;;;;4938945;28;20047;-72
2022/05/01 11:15:01;;;;;;;3.50;1.00;;;23.90;40.00;;;;;;4940081;29;20531;-70
2022/05/01 11:17:52;;;;;;;4.33;1.40;;;24.50;39.90;;;;;;4925335;29;20615;-72
2022/05/01 11:20:32;;;;;;;6.18;1.00;;;25.10;39.10;;;;;;4925817;29;20047;-72
2022/05/01 11:23:34;;;;;;;2.58;0.80;;;25.40;38.40;;;;;;4923386;29;20051;-78
2022/05/01 11:26:15;;;;;;;5.10;1.00;;;25.30;38.30;;;;;;4927046;29;20055;-71
2022/05/01 11:28:52;;;;;;;1.48;0.95;;;25.10;38.90;;;;;;4933140;29;20047;-73
2022/05/01 11:31:52;;;;;;;3.10;0.82;;;25.40;38.70;;;;;;4910312;29;20534;-72
2022/05/01 11:34:41;;;;;;;0.85;0.68;;;24.90;38.50;;;;;;4927691;29;20047;-72
2022/05/01 11:37:09;;;;;;;3.85;1.00;;;23.90;39.70;;;;;;4926333;29;20637;-77
2022/05/01 11:40:25;;;;;;;3.58;1.00;;;23.40;40.20;;;;;;4943172;29;20095;-80
2022/05/01 11:43:17;;;;;;;1.00;0.90;;;23.40;40.40;;;;;;4871839;29;20541;-78
2022/05/01 11:45:46;;;;;;;2.42;0.90;;;23.30;40.40;;;;;;4883369;29;20076;-78
2022/05/01 11:48:17;;;;;;;4.85;0.90;;;23.60;40.20;;;;;;4931162;28;20586;-79
2022/05/01 11:50:48;;;;;;;4.55;1.00;;;24.20;40.60;;;;;;4950229;28;20051;-72
2022/05/01 11:53:22;;;;;;;1.50;0.83;;;24.00;39.60;;;;;;4950648;29;20150;-73
2022/05/01 12:04:29;;;;;;;1.17;0.52;;;22.20;42.00;;;;;;4961466;28;20082;-77
2022/05/01 12:07:02;;;;;;;5.70;0.75;;;21.30;43.40;;;;;;4957533;28;20057;-77
2022/05/01 12:09:33;;;;;;;6.05;0.85;;;20.60;44.60;;;;;;4948081;29;20082;-78
2022/05/01 12:12:00;;;;;;;2.15;0.80;;;19.90;45.90;;;;;;4944871;29;20142;-78
2022/05/01 12:14:29;;;;;;;6.75;1.33;;;19.00;47.80;;;;;;4945428;29;20091;-73
2022/05/01 12:16:57;;;;;;;1.90;1.13;;;18.40;49.30;;;;;;4944982;28;20558;-73
2022/05/01 12:19:36;;;;;;;3.17;1.00;;;17.70;50.50;;;;;;4962750;28;20433;-74
2022/05/01 12:22:04;;;;;;;1.73;1.20;;;17.30;51.80;;;;;;4948368;28;20066;-73
2022/05/01 12:24:33;;;;;;;1.80;1.00;;;17.00;52.20;;;;;;4947967;28;20047;-73
2022/05/01 12:27:01;;;;;;;4.22;0.90;;;16.50;52.90;;;;;;4946792;28;20047;-75
2022/05/01 12:29:31;;;;;;;3.08;1.02;;;16.20;54.00;;;;;;4962933;28;20051;-74
2022/05/01 12:32:06;;;;;;;2.80;1.00;;;15.90;55.10;;;;;;4946720;29;20125;-73
2022/05/01 12:34:37;;;;;;;4.25;1.02;;;15.90;55.70;;;;;;4944852;28;20097;-73
2022/05/01 12:37:06;;;;;;;4.82;1.15;;;15.70;55.40;;;;;;4948393;28;20492;-74
2022/05/01 12:39:34;;;;;;;3.00;0.80;;;15.60;55.70;;;;;;4947935;28;20051;-74
2022/05/01 12:45:20;;;;;;;1.92;1.20;;;15.10;56.90;;;;;;4944717;29;20055;-75
2022/05/01 12:47:50;;;;;;;2.53;1.08;;;15.10;56.70;;;;;;4946188;28;20058;-74
2022/05/01 12:50:29;;;;;;;1.17;0.98;;;15.00;56.80;;;;;;4949144;28;20484;-74
2022/05/01 12:53:02;;;;;;;1.48;0.90;;;15.10;56.70;;;;;;4945979;28;20058;-74
2022/05/01 12:55:34;;;;;;;2.55;0.70;;;15.30;55.90;;;;;;4945168;29;20147;-78
2022/05/01 12:58:03;;;;;;;3.92;0.90;;;15.40;55.60;;;;;;4945204;29;20407;-72
2022/05/01 13:00:41;;;;;;;3.75;0.98;;;15.50;55.20;;;;;;4945162;28;20051;-82
2022/05/01 13:03:25;;;;;;;2.65;0.82;;;15.40;55.50;;;;;;4944861;29;20142;-79
2022/05/01 13:06:01;;;;;;;3.90;1.00;;;15.50;55.90;;;;;;4944154;28;20654;-80
2022/05/01 13:08:35;;;;;;;2.03;0.80;;;15.80;55.00;;;;;;4960471;28;20468;-75
2022/05/01 13:11:20;;;;;;;3.10;1.20;;;16.50;54.00;;;;;;4942519;29;20051;-79
2022/05/01 13:13:56;;;;;;;1.20;0.63;;;17.30;52.30;;;;;;4946741;29;20055;-77
2022/05/01 13:16:40;;;;;;;1.00;0.90;;;17.80;51.10;;;;;;4944750;29;20055;-75
2022/05/01 13:19:12;;;;;;;3.58;1.30;;;18.20;50.20;;;;;;4942555;28;20071;-74
2022/05/01 13:21:42;;;;;;;4.10;1.30;;;18.40;49.70;;;;;;4944604;29;20127;-72
2022/05/01 13:24:14;;;;;;;1.25;0.50;;;18.50;49.90;;;;;;4942490;29;20050;-75
2022/05/01 13:26:42;;;;;;;1.50;1.10;;;18.30;48.70;;;;;;4945684;29;20051;-80
2022/05/01 13:29:14;;;;;;;2.15;0.70;;;18.00;49.00;;;;;;4944953;28;20069;-73
2022/05/01 13:31:45;;;;;;;1.23;0.63;;;17.90;49.40;;;;;;4958674;28;20078;-74
2022/05/01 13:34:13;;;;;;;3.67;0.75;;;18.70;48.70;;;;;;4944239;29;20059;-74
2022/05/01 13:36:41;;;;;;;3.97;0.50;;;20.60;45.70;;;;;;4942517;28;20443;-73
2022/05/01 13:39:10;;;;;;;4.38;0.63;;;21.90;42.10;;;;;;4943416;29;20043;-72
2022/05/01 13:47:11;;;;;;;3.03;0.60;;;25.30;37.60;;;;;;4941877;28;20047;-77
2022/05/01 13:49:41;;;;;;;1.05;0.45;;;25.90;36.60;;;;;;4946088;29;20579;-79
2022/05/01 13:52:10;;;;;;;1.08;0.50;;;25.80;35.90;;;;;;4959319;28;20122;-78
2022/05/01 13:54:38;;;;;;;0.50;0.50;;;25.90;35.50;;;;;;4942895;29;20039;-79